Huvudsida
METAR-TAF:

METAR-TAF

Flygplatser :

Rigas internationella flygplats

Riga, Lettland

latitud: 56-55N, longitud: 023-58E, höjd: 10 m

Aktuellt väderrapport

Denna rapport gjordes för 32 minuter sedan, klockan 01:20 UTC
Vind 4 kt från syd/sydväst
Temperatur 13°C
Fuktighet 94%
Tryck 1017 hPa
Sikt: 0550 m
dimbankar, fuktdis

METAR: EVRA 190120Z 20004KT 2600 0550 R36/P2000N BCFG BR NSC 13/12 Q1017 NOSIG

Tid: 04:52 (01:52 UTC)

Väderprognos

Denna rapport gjordes för 42 minuter sedan, klockan 01:10 UTC
Prognos gäller från 19 kl. 01 UTC till 19 kl. 24 UTC
Vind 2 kt varierande vindriktning
Sikt 10 km eller mer
Inga moln under 1 500 m eller inga cumulonimbus
Temporärt
från 19 kl. 01 UTC till 19 kl. 04 UTC
Sikt: 0700 m
dimma
Blir
från 19 kl. 04 UTC till 19 kl. 06 UTC
Vind 10 kt från väst/sydväst
Temporärt
från 19 kl. 11 UTC till 19 kl. 18 UTC
Brutna moln på en höjd av 1000 ft

TAF: EVRA 190110Z 1901/1924 VRB02KT CAVOK TEMPO 1901/1904 0700 FG BECMG 1904/1906 24010KT TEMPO 1911/1918 BKN010

Aktuella väderrapporter och prognoser från 4000 flygplatser (METAR- och TAF-rapporter).

De tillgängliga stationerna syns som gula och röda prickar på kartan.

För musen över prickarna för att se namnen på stationerna.

Klicka sedan för att få väderrapporter och prognoser.

För att ändra kartan: Klicka på de gröna knapparna med ett svart kors på för att zooma in; den gröna knappen med ett streck på för att zooma ut; eller på de gröna pilarna för angränsande kartor.


METAR-TAF: